sensor_id;sensor_type;location;lat;lon;timestamp;P1;durP1;ratioP1;P2;durP2;ratioP2
76935;SDS011;65881;52.438;16.744;2024-01-30T00:01:22;40.50;;;22.00;;
76935;SDS011;65881;52.438;16.744;2024-01-30T00:03:48;36.15;;;19.13;;
76935;SDS011;65881;52.438;16.744;2024-01-30T00:06:13;39.50;;;22.85;;
76935;SDS011;65881;52.438;16.744;2024-01-30T00:08:39;44.90;;;22.52;;
76935;SDS011;65881;52.438;16.744;2024-01-30T00:11:05;38.28;;;21.67;;
76935;SDS011;65881;52.438;16.744;2024-01-30T00:13:32;37.97;;;20.95;;
76935;SDS011;65881;52.438;16.744;2024-01-30T00:15:57;37.92;;;20.67;;
76935;SDS011;65881;52.438;16.744;2024-01-30T00:18:23;37.80;;;20.63;;
76935;SDS011;65881;52.438;16.744;2024-01-30T00:20:49;37.10;;;20.10;;
76935;SDS011;65881;52.438;16.744;2024-01-30T00:23:14;34.75;;;19.38;;
76935;SDS011;65881;52.438;16.744;2024-01-30T00:25:40;40.38;;;19.65;;
76935;SDS011;65881;52.438;16.744;2024-01-30T00:28:05;32.58;;;20.55;;
76935;SDS011;65881;52.438;16.744;2024-01-30T00:30:31;41.97;;;20.05;;
76935;SDS011;65881;52.438;16.744;2024-01-30T00:32:57;36.40;;;20.67;;
76935;SDS011;65881;52.438;16.744;2024-01-30T00:35:22;35.25;;;19.08;;
76935;SDS011;65881;52.438;16.744;2024-01-30T00:37:48;39.80;;;22.35;;
76935;SDS011;65881;52.438;16.744;2024-01-30T00:40:14;36.63;;;20.65;;
76935;SDS011;65881;52.438;16.744;2024-01-30T00:42:44;33.75;;;20.25;;
76935;SDS011;65881;52.438;16.744;2024-01-30T00:45:15;36.15;;;18.08;;
76935;SDS011;65881;52.438;16.744;2024-01-30T00:47:42;35.95;;;19.33;;
76935;SDS011;65881;52.438;16.744;2024-01-30T00:50:07;36.78;;;20.50;;
76935;SDS011;65881;52.438;16.744;2024-01-30T00:52:33;29.50;;;19.27;;
76935;SDS011;65881;52.438;16.744;2024-01-30T00:54:59;30.40;;;17.40;;
76935;SDS011;65881;52.438;16.744;2024-01-30T00:57:25;38.45;;;19.60;;
76935;SDS011;65881;52.438;16.744;2024-01-30T00:59:52;36.17;;;19.95;;
76935;SDS011;65881;52.438;16.744;2024-01-30T01:02:17;34.63;;;20.02;;
76935;SDS011;65881;52.438;16.744;2024-01-30T01:04:43;32.97;;;19.25;;
76935;SDS011;65881;52.438;16.744;2024-01-30T01:07:10;35.28;;;18.95;;
76935;SDS011;65881;52.438;16.744;2024-01-30T01:09:36;36.42;;;21.85;;
76935;SDS011;65881;52.438;16.744;2024-01-30T01:12:01;36.13;;;19.58;;
76935;SDS011;65881;52.438;16.744;2024-01-30T01:14:27;34.25;;;19.08;;
76935;SDS011;65881;52.438;16.744;2024-01-30T01:16:53;38.55;;;19.38;;
76935;SDS011;65881;52.438;16.744;2024-01-30T01:19:18;34.65;;;16.92;;
76935;SDS011;65881;52.438;16.744;2024-01-30T01:21:44;34.38;;;18.33;;
76935;SDS011;65881;52.438;16.744;2024-01-30T01:24:10;37.78;;;19.50;;
76935;SDS011;65881;52.438;16.744;2024-01-30T01:26:35;34.80;;;16.98;;
76935;SDS011;65881;52.438;16.744;2024-01-30T01:29:01;28.10;;;16.98;;
76935;SDS011;65881;52.438;16.744;2024-01-30T01:31:29;37.72;;;20.00;;
76935;SDS011;65881;52.438;16.744;2024-01-30T01:33:55;32.33;;;17.98;;
76935;SDS011;65881;52.438;16.744;2024-01-30T01:36:20;28.70;;;17.45;;
76935;SDS011;65881;52.438;16.744;2024-01-30T01:38:46;37.15;;;18.15;;
76935;SDS011;65881;52.438;16.744;2024-01-30T01:41:12;32.42;;;18.13;;
76935;SDS011;65881;52.438;16.744;2024-01-30T01:43:37;30.40;;;17.95;;
76935;SDS011;65881;52.438;16.744;2024-01-30T01:46:04;30.90;;;17.70;;
76935;SDS011;65881;52.438;16.744;2024-01-30T01:48:31;32.22;;;18.10;;
76935;SDS011;65881;52.438;16.744;2024-01-30T01:50:57;34.08;;;19.17;;
76935;SDS011;65881;52.438;16.744;2024-01-30T01:53:23;30.13;;;17.25;;
76935;SDS011;65881;52.438;16.744;2024-01-30T01:55:49;35.90;;;19.48;;
76935;SDS011;65881;52.438;16.744;2024-01-30T01:58:15;37.05;;;16.95;;
76935;SDS011;65881;52.438;16.744;2024-01-30T02:00:41;30.83;;;17.55;;
76935;SDS011;65881;52.438;16.744;2024-01-30T02:03:08;29.13;;;17.00;;
76935;SDS011;65881;52.438;16.744;2024-01-30T02:05:36;28.75;;;16.23;;
76935;SDS011;65881;52.438;16.744;2024-01-30T02:08:02;30.27;;;16.77;;
76935;SDS011;65881;52.438;16.744;2024-01-30T02:10:28;33.22;;;17.52;;
76935;SDS011;65881;52.438;16.744;2024-01-30T02:12:54;32.40;;;17.73;;
76935;SDS011;65881;52.438;16.744;2024-01-30T02:15:20;33.72;;;18.77;;
76935;SDS011;65881;52.438;16.744;2024-01-30T02:17:45;30.45;;;16.40;;
76935;SDS011;65881;52.438;16.744;2024-01-30T02:20:11;36.15;;;18.10;;
76935;SDS011;65881;52.438;16.744;2024-01-30T02:22:37;38.88;;;17.15;;
76935;SDS011;65881;52.438;16.744;2024-01-30T02:25:05;34.38;;;18.08;;
76935;SDS011;65881;52.438;16.744;2024-01-30T02:27:31;26.17;;;13.98;;
76935;SDS011;65881;52.438;16.744;2024-01-30T02:29:57;32.35;;;17.10;;
76935;SDS011;65881;52.438;16.744;2024-01-30T02:32:22;33.55;;;18.67;;
76935;SDS011;65881;52.438;16.744;2024-01-30T02:34:48;29.50;;;17.65;;
76935;SDS011;65881;52.438;16.744;2024-01-30T02:37:13;36.80;;;20.92;;
76935;SDS011;65881;52.438;16.744;2024-01-30T02:39:39;38.03;;;19.25;;
76935;SDS011;65881;52.438;16.744;2024-01-30T02:42:05;29.83;;;17.27;;
76935;SDS011;65881;52.438;16.744;2024-01-30T02:44:30;38.78;;;18.92;;
76935;SDS011;65881;52.438;16.744;2024-01-30T02:46:56;30.42;;;17.90;;
76935;SDS011;65881;52.438;16.744;2024-01-30T02:49:21;35.83;;;19.35;;
76935;SDS011;65881;52.438;16.744;2024-01-30T02:51:47;32.90;;;19.45;;
76935;SDS011;65881;52.438;16.744;2024-01-30T02:54:13;31.42;;;17.88;;
76935;SDS011;65881;52.438;16.744;2024-01-30T02:56:38;30.20;;;17.77;;
76935;SDS011;65881;52.438;16.744;2024-01-30T02:59:04;42.25;;;18.75;;
76935;SDS011;65881;52.438;16.744;2024-01-30T03:01:30;37.60;;;18.65;;
76935;SDS011;65881;52.438;16.744;2024-01-30T03:03:56;43.75;;;20.00;;
76935;SDS011;65881;52.438;16.744;2024-01-30T03:06:22;30.67;;;17.40;;
76935;SDS011;65881;52.438;16.744;2024-01-30T03:08:48;31.55;;;18.52;;
76935;SDS011;65881;52.438;16.744;2024-01-30T03:11:13;36.13;;;17.65;;
76935;SDS011;65881;52.438;16.744;2024-01-30T03:13:39;37.35;;;18.15;;
76935;SDS011;65881;52.438;16.744;2024-01-30T03:16:05;27.52;;;18.45;;
76935;SDS011;65881;52.438;16.744;2024-01-30T03:18:31;31.13;;;17.00;;
76935;SDS011;65881;52.438;16.744;2024-01-30T03:20:56;30.13;;;17.17;;
76935;SDS011;65881;52.438;16.744;2024-01-30T03:23:22;29.45;;;16.55;;
76935;SDS011;65881;52.438;16.744;2024-01-30T03:25:48;30.27;;;16.10;;
76935;SDS011;65881;52.438;16.744;2024-01-30T03:28:13;28.90;;;16.55;;
76935;SDS011;65881;52.438;16.744;2024-01-30T03:30:40;26.05;;;15.32;;
76935;SDS011;65881;52.438;16.744;2024-01-30T03:33:05;32.35;;;16.00;;
76935;SDS011;65881;52.438;16.744;2024-01-30T03:35:31;28.60;;;14.88;;
76935;SDS011;65881;52.438;16.744;2024-01-30T03:37:56;26.05;;;14.32;;
76935;SDS011;65881;52.438;16.744;2024-01-30T03:40:22;28.65;;;15.48;;
76935;SDS011;65881;52.438;16.744;2024-01-30T03:42:48;28.27;;;17.27;;
76935;SDS011;65881;52.438;16.744;2024-01-30T03:45:13;27.95;;;15.68;;
76935;SDS011;65881;52.438;16.744;2024-01-30T03:47:39;26.42;;;14.70;;
76935;SDS011;65881;52.438;16.744;2024-01-30T03:50:05;30.95;;;16.90;;
76935;SDS011;65881;52.438;16.744;2024-01-30T03:52:31;32.22;;;16.20;;
76935;SDS011;65881;52.438;16.744;2024-01-30T03:54:56;27.58;;;14.82;;
76935;SDS011;65881;52.438;16.744;2024-01-30T03:57:22;30.30;;;15.50;;
76935;SDS011;65881;52.438;16.744;2024-01-30T03:59:47;26.35;;;16.95;;
76935;SDS011;65881;52.438;16.744;2024-01-30T04:02:13;33.10;;;15.73;;
76935;SDS011;65881;52.438;16.744;2024-01-30T04:04:39;35.17;;;16.63;;
76935;SDS011;65881;52.438;16.744;2024-01-30T04:07:04;29.83;;;15.10;;
76935;SDS011;65881;52.438;16.744;2024-01-30T04:09:30;26.52;;;14.75;;
76935;SDS011;65881;52.438;16.744;2024-01-30T04:11:57;35.58;;;15.93;;
76935;SDS011;65881;52.438;16.744;2024-01-30T04:14:23;26.80;;;15.05;;
76935;SDS011;65881;52.438;16.744;2024-01-30T04:16:48;33.63;;;15.98;;
76935;SDS011;65881;52.438;16.744;2024-01-30T04:19:14;26.55;;;15.23;;
76935;SDS011;65881;52.438;16.744;2024-01-30T04:21:40;24.85;;;15.52;;
76935;SDS011;65881;52.438;16.744;2024-01-30T04:24:05;29.77;;;15.63;;
76935;SDS011;65881;52.438;16.744;2024-01-30T04:26:31;23.67;;;15.20;;
76935;SDS011;65881;52.438;16.744;2024-01-30T04:28:57;28.95;;;14.98;;
76935;SDS011;65881;52.438;16.744;2024-01-30T04:31:22;29.10;;;15.38;;
76935;SDS011;65881;52.438;16.744;2024-01-30T04:33:48;27.30;;;14.73;;
76935;SDS011;65881;52.438;16.744;2024-01-30T04:36:15;30.48;;;15.10;;
76935;SDS011;65881;52.438;16.744;2024-01-30T04:38:40;24.77;;;16.15;;
76935;SDS011;65881;52.438;16.744;2024-01-30T04:41:06;25.08;;;15.15;;
76935;SDS011;65881;52.438;16.744;2024-01-30T04:43:32;27.75;;;15.90;;
76935;SDS011;65881;52.438;16.744;2024-01-30T04:45:58;35.80;;;17.80;;
76935;SDS011;65881;52.438;16.744;2024-01-30T04:48:23;26.52;;;15.75;;
76935;SDS011;65881;52.438;16.744;2024-01-30T04:50:49;26.48;;;14.35;;
76935;SDS011;65881;52.438;16.744;2024-01-30T04:53:15;28.23;;;15.07;;
76935;SDS011;65881;52.438;16.744;2024-01-30T04:55:40;25.75;;;15.73;;
76935;SDS011;65881;52.438;16.744;2024-01-30T04:58:07;25.38;;;15.13;;
76935;SDS011;65881;52.438;16.744;2024-01-30T05:00:33;31.55;;;15.88;;
76935;SDS011;65881;52.438;16.744;2024-01-30T05:02:59;29.02;;;15.00;;
76935;SDS011;65881;52.438;16.744;2024-01-30T05:05:26;23.77;;;15.40;;
76935;SDS011;65881;52.438;16.744;2024-01-30T05:07:51;27.15;;;13.45;;
76935;SDS011;65881;52.438;16.744;2024-01-30T05:10:17;28.05;;;15.80;;
76935;SDS011;65881;52.438;16.744;2024-01-30T05:12:44;26.70;;;14.30;;
76935;SDS011;65881;52.438;16.744;2024-01-30T05:15:12;30.52;;;17.10;;
76935;SDS011;65881;52.438;16.744;2024-01-30T05:17:38;34.67;;;18.35;;
76935;SDS011;65881;52.438;16.744;2024-01-30T05:20:04;43.13;;;23.15;;
76935;SDS011;65881;52.438;16.744;2024-01-30T05:22:31;48.45;;;26.90;;
76935;SDS011;65881;52.438;16.744;2024-01-30T05:24:58;35.00;;;20.35;;
76935;SDS011;65881;52.438;16.744;2024-01-30T05:27:33;31.27;;;17.85;;
76935;SDS011;65881;52.438;16.744;2024-01-30T05:30:09;32.72;;;15.63;;
76935;SDS011;65881;52.438;16.744;2024-01-30T05:32:35;26.10;;;17.35;;
76935;SDS011;65881;52.438;16.744;2024-01-30T05:35:01;30.58;;;15.75;;
76935;SDS011;65881;52.438;16.744;2024-01-30T05:40:17;33.58;;;17.98;;
76935;SDS011;65881;52.438;16.744;2024-01-30T05:42:43;26.77;;;16.30;;
76935;SDS011;65881;52.438;16.744;2024-01-30T05:45:09;27.05;;;15.82;;
76935;SDS011;65881;52.438;16.744;2024-01-30T05:47:34;31.90;;;17.15;;
76935;SDS011;65881;52.438;16.744;2024-01-30T05:50:00;30.75;;;16.00;;
76935;SDS011;65881;52.438;16.744;2024-01-30T05:52:32;39.28;;;18.52;;
76935;SDS011;65881;52.438;16.744;2024-01-30T05:55:01;29.67;;;16.45;;
76935;SDS011;65881;52.438;16.744;2024-01-30T05:57:28;23.63;;;15.60;;
76935;SDS011;65881;52.438;16.744;2024-01-30T05:59:58;28.85;;;16.73;;
76935;SDS011;65881;52.438;16.744;2024-01-30T06:02:42;28.33;;;16.20;;
76935;SDS011;65881;52.438;16.744;2024-01-30T06:05:08;26.95;;;16.33;;
76935;SDS011;65881;52.438;16.744;2024-01-30T06:07:35;26.85;;;16.40;;
76935;SDS011;65881;52.438;16.744;2024-01-30T06:10:00;28.48;;;16.13;;
76935;SDS011;65881;52.438;16.744;2024-01-30T06:12:27;26.13;;;14.93;;
76935;SDS011;65881;52.438;16.744;2024-01-30T06:14:53;28.20;;;17.33;;
76935;SDS011;65881;52.438;16.744;2024-01-30T06:17:21;24.42;;;15.52;;
76935;SDS011;65881;52.438;16.744;2024-01-30T06:19:47;26.27;;;14.73;;
76935;SDS011;65881;52.438;16.744;2024-01-30T06:22:13;28.70;;;16.83;;
76935;SDS011;65881;52.438;16.744;2024-01-30T06:24:38;30.05;;;18.05;;
76935;SDS011;65881;52.438;16.744;2024-01-30T06:27:04;31.40;;;18.10;;
76935;SDS011;65881;52.438;16.744;2024-01-30T06:29:30;22.38;;;15.75;;
76935;SDS011;65881;52.438;16.744;2024-01-30T06:31:55;25.40;;;16.35;;
76935;SDS011;65881;52.438;16.744;2024-01-30T06:34:22;33.72;;;18.58;;
76935;SDS011;65881;52.438;16.744;2024-01-30T06:36:47;34.28;;;17.50;;
76935;SDS011;65881;52.438;16.744;2024-01-30T06:39:13;25.50;;;16.85;;
76935;SDS011;65881;52.438;16.744;2024-01-30T06:41:39;34.92;;;15.93;;
76935;SDS011;65881;52.438;16.744;2024-01-30T06:44:04;26.50;;;16.45;;
76935;SDS011;65881;52.438;16.744;2024-01-30T06:46:31;32.10;;;15.75;;
76935;SDS011;65881;52.438;16.744;2024-01-30T06:48:57;28.20;;;16.50;;
76935;SDS011;65881;52.438;16.744;2024-01-30T06:51:23;25.58;;;13.90;;
76935;SDS011;65881;52.438;16.744;2024-01-30T06:53:48;30.52;;;17.50;;
76935;SDS011;65881;52.438;16.744;2024-01-30T06:56:14;28.52;;;18.48;;
76935;SDS011;65881;52.438;16.744;2024-01-30T06:58:40;31.20;;;18.65;;
76935;SDS011;65881;52.438;16.744;2024-01-30T07:01:06;27.23;;;15.95;;
76935;SDS011;65881;52.438;16.744;2024-01-30T07:03:31;26.38;;;15.75;;
76935;SDS011;65881;52.438;16.744;2024-01-30T07:05:57;30.48;;;17.20;;
76935;SDS011;65881;52.438;16.744;2024-01-30T07:08:23;32.72;;;17.90;;
76935;SDS011;65881;52.438;16.744;2024-01-30T07:10:49;30.77;;;16.55;;
76935;SDS011;65881;52.438;16.744;2024-01-30T07:13:14;26.33;;;15.85;;
76935;SDS011;65881;52.438;16.744;2024-01-30T07:15:41;28.88;;;16.13;;
76935;SDS011;65881;52.438;16.744;2024-01-30T07:18:07;33.75;;;17.42;;
76935;SDS011;65881;52.438;16.744;2024-01-30T07:20:34;31.92;;;17.73;;
76935;SDS011;65881;52.438;16.744;2024-01-30T07:23:00;34.03;;;17.85;;
76935;SDS011;65881;52.438;16.744;2024-01-30T07:25:26;34.47;;;17.52;;
76935;SDS011;65881;52.438;16.744;2024-01-30T07:27:52;33.15;;;18.50;;
76935;SDS011;65881;52.438;16.744;2024-01-30T07:30:18;35.40;;;18.40;;
76935;SDS011;65881;52.438;16.744;2024-01-30T07:32:46;29.05;;;16.30;;
76935;SDS011;65881;52.438;16.744;2024-01-30T07:35:13;29.30;;;18.45;;
76935;SDS011;65881;52.438;16.744;2024-01-30T07:37:38;34.45;;;18.17;;
76935;SDS011;65881;52.438;16.744;2024-01-30T07:40:05;32.90;;;18.80;;
76935;SDS011;65881;52.438;16.744;2024-01-30T07:42:31;30.73;;;18.02;;
76935;SDS011;65881;52.438;16.744;2024-01-30T07:44:58;30.73;;;18.48;;
76935;SDS011;65881;52.438;16.744;2024-01-30T07:47:24;30.33;;;18.13;;
76935;SDS011;65881;52.438;16.744;2024-01-30T07:49:49;28.10;;;17.48;;
76935;SDS011;65881;52.438;16.744;2024-01-30T07:52:16;33.58;;;16.85;;
76935;SDS011;65881;52.438;16.744;2024-01-30T07:54:48;33.03;;;17.70;;
76935;SDS011;65881;52.438;16.744;2024-01-30T07:57:14;35.65;;;18.38;;
76935;SDS011;65881;52.438;16.744;2024-01-30T07:59:44;33.80;;;18.50;;
76935;SDS011;65881;52.438;16.744;2024-01-30T08:02:12;30.92;;;18.23;;
76935;SDS011;65881;52.438;16.744;2024-01-30T08:04:38;36.85;;;17.58;;
76935;SDS011;65881;52.438;16.744;2024-01-30T08:07:04;28.25;;;16.27;;
76935;SDS011;65881;52.438;16.744;2024-01-30T08:09:29;25.38;;;15.18;;
76935;SDS011;65881;52.438;16.744;2024-01-30T08:11:55;32.63;;;17.58;;
76935;SDS011;65881;52.438;16.744;2024-01-30T08:14:20;27.60;;;16.48;;
76935;SDS011;65881;52.438;16.744;2024-01-30T08:16:46;30.38;;;16.10;;
76935;SDS011;65881;52.438;16.744;2024-01-30T08:19:12;27.10;;;15.25;;
76935;SDS011;65881;52.438;16.744;2024-01-30T08:21:38;24.20;;;14.95;;
76935;SDS011;65881;52.438;16.744;2024-01-30T08:24:04;25.70;;;15.23;;
76935;SDS011;65881;52.438;16.744;2024-01-30T08:26:30;26.15;;;16.20;;
76935;SDS011;65881;52.438;16.744;2024-01-30T08:28:58;29.58;;;14.25;;
76935;SDS011;65881;52.438;16.744;2024-01-30T08:31:24;28.40;;;16.15;;
76935;SDS011;65881;52.438;16.744;2024-01-30T08:33:50;28.77;;;16.30;;
76935;SDS011;65881;52.438;16.744;2024-01-30T08:36:17;27.58;;;15.38;;
76935;SDS011;65881;52.438;16.744;2024-01-30T08:38:43;29.20;;;15.32;;
76935;SDS011;65881;52.438;16.744;2024-01-30T08:41:08;31.17;;;15.13;;
76935;SDS011;65881;52.438;16.744;2024-01-30T08:43:34;31.13;;;15.27;;
76935;SDS011;65881;52.438;16.744;2024-01-30T08:46:01;27.33;;;15.68;;
76935;SDS011;65881;52.438;16.744;2024-01-30T08:48:27;22.80;;;15.93;;
76935;SDS011;65881;52.438;16.744;2024-01-30T08:50:53;27.23;;;14.73;;
76935;SDS011;65881;52.438;16.744;2024-01-30T08:53:18;23.13;;;13.88;;
76935;SDS011;65881;52.438;16.744;2024-01-30T08:55:44;26.45;;;14.75;;
76935;SDS011;65881;52.438;16.744;2024-01-30T08:58:10;18.67;;;12.77;;
76935;SDS011;65881;52.438;16.744;2024-01-30T09:00:36;27.30;;;14.65;;
76935;SDS011;65881;52.438;16.744;2024-01-30T09:03:01;23.70;;;13.93;;
76935;SDS011;65881;52.438;16.744;2024-01-30T09:05:28;23.85;;;12.25;;
76935;SDS011;65881;52.438;16.744;2024-01-30T09:07:53;24.35;;;14.55;;
76935;SDS011;65881;52.438;16.744;2024-01-30T09:10:19;23.80;;;12.93;;
76935;SDS011;65881;52.438;16.744;2024-01-30T09:12:45;29.55;;;15.55;;
76935;SDS011;65881;52.438;16.744;2024-01-30T09:15:11;22.52;;;14.32;;
76935;SDS011;65881;52.438;16.744;2024-01-30T09:17:37;25.55;;;13.48;;
76935;SDS011;65881;52.438;16.744;2024-01-30T09:20:03;26.17;;;14.38;;
76935;SDS011;65881;52.438;16.744;2024-01-30T09:22:29;24.73;;;14.23;;
76935;SDS011;65881;52.438;16.744;2024-01-30T09:24:55;25.23;;;14.73;;
76935;SDS011;65881;52.438;16.744;2024-01-30T09:27:21;22.67;;;13.98;;
76935;SDS011;65881;52.438;16.744;2024-01-30T09:29:47;19.50;;;12.20;;
76935;SDS011;65881;52.438;16.744;2024-01-30T09:32:12;22.75;;;13.98;;
76935;SDS011;65881;52.438;16.744;2024-01-30T09:34:38;23.92;;;13.32;;
76935;SDS011;65881;52.438;16.744;2024-01-30T09:37:04;30.80;;;18.35;;
76935;SDS011;65881;52.438;16.744;2024-01-30T09:39:30;26.95;;;16.40;;
76935;SDS011;65881;52.438;16.744;2024-01-30T09:42:01;25.40;;;13.93;;
76935;SDS011;65881;52.438;16.744;2024-01-30T09:44:51;22.15;;;13.00;;
76935;SDS011;65881;52.438;16.744;2024-01-30T09:47:18;27.70;;;14.38;;
76935;SDS011;65881;52.438;16.744;2024-01-30T09:49:43;21.90;;;12.90;;
76935;SDS011;65881;52.438;16.744;2024-01-30T09:52:09;35.00;;;17.38;;
76935;SDS011;65881;52.438;16.744;2024-01-30T09:54:35;27.63;;;17.38;;
76935;SDS011;65881;52.438;16.744;2024-01-30T09:57:03;26.67;;;16.00;;
76935;SDS011;65881;52.438;16.744;2024-01-30T09:59:29;31.27;;;16.45;;
76935;SDS011;65881;52.438;16.744;2024-01-30T10:01:55;27.52;;;14.50;;
76935;SDS011;65881;52.438;16.744;2024-01-30T10:04:21;20.80;;;13.63;;
76935;SDS011;65881;52.438;16.744;2024-01-30T10:06:47;29.33;;;14.15;;
76935;SDS011;65881;52.438;16.744;2024-01-30T10:09:13;22.10;;;13.77;;
76935;SDS011;65881;52.438;16.744;2024-01-30T10:11:38;26.45;;;14.32;;
76935;SDS011;65881;52.438;16.744;2024-01-30T10:14:04;26.40;;;14.90;;
76935;SDS011;65881;52.438;16.744;2024-01-30T10:16:30;28.83;;;14.32;;
76935;SDS011;65881;52.438;16.744;2024-01-30T10:18:55;25.33;;;15.30;;
76935;SDS011;65881;52.438;16.744;2024-01-30T10:21:21;24.70;;;14.15;;
76935;SDS011;65881;52.438;16.744;2024-01-30T10:23:47;22.48;;;13.65;;
76935;SDS011;65881;52.438;16.744;2024-01-30T10:26:12;25.42;;;14.45;;
76935;SDS011;65881;52.438;16.744;2024-01-30T10:28:38;24.48;;;14.75;;
76935;SDS011;65881;52.438;16.744;2024-01-30T10:31:04;25.25;;;14.50;;
76935;SDS011;65881;52.438;16.744;2024-01-30T10:33:32;27.60;;;15.27;;
76935;SDS011;65881;52.438;16.744;2024-01-30T10:36:00;22.05;;;12.98;;
76935;SDS011;65881;52.438;16.744;2024-01-30T10:38:30;21.67;;;13.95;;
76935;SDS011;65881;52.438;16.744;2024-01-30T10:40:58;25.05;;;14.68;;
76935;SDS011;65881;52.438;16.744;2024-01-30T10:43:39;20.30;;;13.18;;
76935;SDS011;65881;52.438;16.744;2024-01-30T10:48:39;20.35;;;13.60;;
76935;SDS011;65881;52.438;16.744;2024-01-30T10:51:09;23.40;;;14.80;;
76935;SDS011;65881;52.438;16.744;2024-01-30T10:53:36;22.08;;;13.25;;
76935;SDS011;65881;52.438;16.744;2024-01-30T10:56:02;27.90;;;15.70;;
76935;SDS011;65881;52.438;16.744;2024-01-30T10:58:29;19.33;;;13.52;;
76935;SDS011;65881;52.438;16.744;2024-01-30T11:00:55;23.27;;;13.05;;
76935;SDS011;65881;52.438;16.744;2024-01-30T11:03:21;23.55;;;14.15;;
76935;SDS011;65881;52.438;16.744;2024-01-30T11:05:51;25.45;;;15.27;;
76935;SDS011;65881;52.438;16.744;2024-01-30T11:08:24;22.70;;;13.77;;
76935;SDS011;65881;52.438;16.744;2024-01-30T11:10:54;26.48;;;16.45;;
76935;SDS011;65881;52.438;16.744;2024-01-30T11:13:20;28.73;;;16.33;;
76935;SDS011;65881;52.438;16.744;2024-01-30T11:15:49;26.77;;;16.58;;
76935;SDS011;65881;52.438;16.744;2024-01-30T11:18:24;31.00;;;19.45;;
76935;SDS011;65881;52.438;16.744;2024-01-30T11:20:51;26.77;;;16.27;;
76935;SDS011;65881;52.438;16.744;2024-01-30T11:23:17;21.73;;;13.55;;
76935;SDS011;65881;52.438;16.744;2024-01-30T11:25:43;27.55;;;16.02;;
76935;SDS011;65881;52.438;16.744;2024-01-30T11:28:15;30.17;;;17.52;;
76935;SDS011;65881;52.438;16.744;2024-01-30T11:30:41;31.90;;;15.45;;
76935;SDS011;65881;52.438;16.744;2024-01-30T11:33:11;21.98;;;12.65;;
76935;SDS011;65881;52.438;16.744;2024-01-30T11:35:41;27.15;;;13.48;;
76935;SDS011;65881;52.438;16.744;2024-01-30T11:38:08;23.30;;;14.27;;
76935;SDS011;65881;52.438;16.744;2024-01-30T11:40:35;23.27;;;13.75;;
76935;SDS011;65881;52.438;16.744;2024-01-30T11:43:02;26.73;;;14.02;;
76935;SDS011;65881;52.438;16.744;2024-01-30T11:45:29;23.52;;;14.70;;
76935;SDS011;65881;52.438;16.744;2024-01-30T11:47:57;19.00;;;12.25;;
76935;SDS011;65881;52.438;16.744;2024-01-30T11:50:28;22.02;;;13.90;;
76935;SDS011;65881;52.438;16.744;2024-01-30T11:53:02;23.52;;;13.02;;
76935;SDS011;65881;52.438;16.744;2024-01-30T11:55:29;22.48;;;13.30;;
76935;SDS011;65881;52.438;16.744;2024-01-30T11:57:56;19.70;;;13.70;;
76935;SDS011;65881;52.438;16.744;2024-01-30T12:00:23;23.00;;;14.77;;
76935;SDS011;65881;52.438;16.744;2024-01-30T12:02:49;23.65;;;14.27;;
76935;SDS011;65881;52.438;16.744;2024-01-30T12:05:18;26.73;;;13.30;;
76935;SDS011;65881;52.438;16.744;2024-01-30T12:07:45;20.00;;;12.00;;
76935;SDS011;65881;52.438;16.744;2024-01-30T12:10:12;23.40;;;11.40;;
76935;SDS011;65881;52.438;16.744;2024-01-30T12:12:43;24.25;;;13.73;;
76935;SDS011;65881;52.438;16.744;2024-01-30T12:15:11;24.33;;;11.77;;
76935;SDS011;65881;52.438;16.744;2024-01-30T12:17:38;22.80;;;12.75;;
76935;SDS011;65881;52.438;16.744;2024-01-30T12:20:11;17.40;;;11.55;;
76935;SDS011;65881;52.438;16.744;2024-01-30T12:22:39;23.20;;;13.68;;
76935;SDS011;65881;52.438;16.744;2024-01-30T12:25:09;22.52;;;12.00;;
76935;SDS011;65881;52.438;16.744;2024-01-30T12:27:42;24.13;;;14.38;;
76935;SDS011;65881;52.438;16.744;2024-01-30T12:30:09;19.75;;;12.00;;
76935;SDS011;65881;52.438;16.744;2024-01-30T12:32:37;22.55;;;13.10;;
76935;SDS011;65881;52.438;16.744;2024-01-30T12:35:11;24.33;;;15.85;;
76935;SDS011;65881;52.438;16.744;2024-01-30T12:37:39;29.23;;;16.90;;
76935;SDS011;65881;52.438;16.744;2024-01-30T12:40:06;24.55;;;13.98;;
76935;SDS011;65881;52.438;16.744;2024-01-30T12:42:33;28.83;;;17.25;;
76935;SDS011;65881;52.438;16.744;2024-01-30T12:44:59;31.90;;;14.82;;
76935;SDS011;65881;52.438;16.744;2024-01-30T12:47:25;27.08;;;16.05;;
76935;SDS011;65881;52.438;16.744;2024-01-30T12:49:51;27.25;;;16.35;;
76935;SDS011;65881;52.438;16.744;2024-01-30T12:52:19;24.27;;;13.98;;
76935;SDS011;65881;52.438;16.744;2024-01-30T12:54:46;30.25;;;17.60;;
76935;SDS011;65881;52.438;16.744;2024-01-30T12:57:12;31.90;;;18.88;;
76935;SDS011;65881;52.438;16.744;2024-01-30T12:59:38;30.90;;;18.92;;
76935;SDS011;65881;52.438;16.744;2024-01-30T13:02:04;29.20;;;16.35;;
76935;SDS011;65881;52.438;16.744;2024-01-30T13:04:30;26.63;;;15.52;;
76935;SDS011;65881;52.438;16.744;2024-01-30T13:06:56;24.90;;;14.05;;
76935;SDS011;65881;52.438;16.744;2024-01-30T13:09:22;31.52;;;17.13;;
76935;SDS011;65881;52.438;16.744;2024-01-30T13:11:49;27.15;;;15.50;;
76935;SDS011;65881;52.438;16.744;2024-01-30T13:14:15;30.00;;;17.70;;
76935;SDS011;65881;52.438;16.744;2024-01-30T13:16:41;31.50;;;18.05;;
76935;SDS011;65881;52.438;16.744;2024-01-30T13:19:06;25.13;;;15.45;;
76935;SDS011;65881;52.438;16.744;2024-01-30T13:21:32;25.33;;;14.40;;
76935;SDS011;65881;52.438;16.744;2024-01-30T13:23:57;32.53;;;15.88;;
76935;SDS011;65881;52.438;16.744;2024-01-30T13:26:23;20.83;;;11.90;;
76935;SDS011;65881;52.438;16.744;2024-01-30T13:28:49;22.60;;;12.75;;
76935;SDS011;65881;52.438;16.744;2024-01-30T13:31:14;27.52;;;14.20;;
76935;SDS011;65881;52.438;16.744;2024-01-30T13:33:41;26.52;;;15.65;;
76935;SDS011;65881;52.438;16.744;2024-01-30T13:36:07;21.92;;;14.23;;
76935;SDS011;65881;52.438;16.744;2024-01-30T13:38:36;21.55;;;14.05;;
76935;SDS011;65881;52.438;16.744;2024-01-30T13:41:01;24.83;;;13.38;;
76935;SDS011;65881;52.438;16.744;2024-01-30T13:43:27;19.83;;;12.15;;
76935;SDS011;65881;52.438;16.744;2024-01-30T13:45:53;36.30;;;18.35;;
76935;SDS011;65881;52.438;16.744;2024-01-30T13:48:19;25.85;;;16.10;;
76935;SDS011;65881;52.438;16.744;2024-01-30T13:50:45;23.70;;;14.80;;
76935;SDS011;65881;52.438;16.744;2024-01-30T13:53:11;23.10;;;13.32;;
76935;SDS011;65881;52.438;16.744;2024-01-30T13:55:36;22.50;;;13.88;;
76935;SDS011;65881;52.438;16.744;2024-01-30T13:58:04;19.95;;;12.05;;
76935;SDS011;65881;52.438;16.744;2024-01-30T14:00:29;19.85;;;13.98;;
76935;SDS011;65881;52.438;16.744;2024-01-30T14:02:55;22.77;;;12.90;;
76935;SDS011;65881;52.438;16.744;2024-01-30T14:05:22;21.90;;;12.55;;
76935;SDS011;65881;52.438;16.744;2024-01-30T14:07:48;26.88;;;14.13;;
76935;SDS011;65881;52.438;16.744;2024-01-30T14:10:15;27.98;;;16.38;;